Time;durP1;ratioP1;P1;durP2;ratioP2;P2;SDS_P1;SDS_P2;PMS_P1;PMS_P2;Temp;Humidity;BMP_temperature;BMP_pressure;BME280_temperature;BME280_humidity;BME280_pressure;Samples;Min_cycle;Max_cycle;Signal;HPM_P1;HPM_P2
2023/08/08 04:02:08;;;;;;;2.55;1.55;;;15.50;99.90;;;;;;5142508;23;20566;-65
2023/08/08 04:04:34;;;;;;;3.73;1.53;;;15.60;99.90;;;;;;4957069;29;20059;-66
2023/08/08 04:06:59;;;;;;;4.50;1.63;;;15.60;99.90;;;;;;4958003;29;20373;-65
2023/08/08 04:09:25;;;;;;;2.43;1.13;;;15.60;99.90;;;;;;4957857;29;20294;-65
2023/08/08 04:11:50;;;;;;;5.00;1.50;;;15.60;99.90;;;;;;4957828;28;20423;-65
2023/08/08 04:14:16;;;;;;;5.63;1.70;;;15.60;99.90;;;;;;4957905;29;20542;-65
2023/08/08 04:16:41;;;;;;;3.40;2.00;;;15.50;99.90;;;;;;4958267;29;20027;-62
2023/08/08 04:19:07;;;;;;;4.07;1.50;;;15.50;99.90;;;;;;4957949;29;20019;-62
2023/08/08 04:21:32;;;;;;;3.53;1.70;;;15.50;99.90;;;;;;4957841;28;20551;-62
2023/08/08 04:23:59;;;;;;;3.90;1.60;;;15.30;99.90;;;;;;4940757;29;20031;-62
2023/08/08 04:26:25;;;;;;;2.70;1.85;;;15.20;99.90;;;;;;4958027;29;20019;-63
2023/08/08 04:28:51;;;;;;;5.15;1.65;;;15.00;99.90;;;;;;4957928;29;20050;-62
2023/08/08 04:31:17;;;;;;;2.55;1.50;;;15.00;99.90;;;;;;4940520;29;20190;-62
2023/08/08 04:33:43;;;;;;;2.47;1.50;;;15.10;99.90;;;;;;4957923;29;20479;-61
2023/08/08 04:36:08;;;;;;;4.22;1.88;;;15.10;99.90;;;;;;4957651;29;20039;-63
2023/08/08 04:38:34;;;;;;;4.37;1.33;;;15.30;99.90;;;;;;4958002;29;20031;-61
2023/08/08 04:41:00;;;;;;;2.35;1.55;;;15.40;99.90;;;;;;4957562;28;20027;-62
2023/08/08 04:43:27;;;;;;;7.53;3.95;;;15.30;99.90;;;;;;4939927;29;20441;-60
2023/08/08 04:45:53;;;;;;;6.85;2.17;;;15.40;99.90;;;;;;4957545;28;20015;-63
2023/08/08 04:48:18;;;;;;;3.97;1.40;;;15.30;99.90;;;;;;4958096;29;20123;-62
2023/08/08 04:50:46;;;;;;;5.03;1.60;;;15.30;99.90;;;;;;4940386;29;20271;-61
2023/08/08 04:53:12;;;;;;;5.35;1.63;;;15.30;99.90;;;;;;4957116;29;20027;-62
2023/08/08 04:55:37;;;;;;;3.43;1.70;;;15.30;99.90;;;;;;4939882;29;20031;-61
2023/08/08 04:58:03;;;;;;;7.10;2.17;;;15.30;99.90;;;;;;4956907;29;20526;-61
2023/08/08 05:00:29;;;;;;;4.50;1.80;;;15.20;99.90;;;;;;4957007;28;20110;-62
2023/08/08 05:02:54;;;;;;;3.80;1.80;;;15.20;99.90;;;;;;4939587;29;20035;-61
2023/08/08 05:05:20;;;;;;;4.67;2.00;;;15.30;99.90;;;;;;4956510;29;20055;-62
2023/08/08 05:07:45;;;;;;;3.70;1.60;;;15.30;99.90;;;;;;4957115;29;20034;-62
2023/08/08 05:10:11;;;;;;;5.03;1.70;;;15.20;99.90;;;;;;4939495;28;20043;-66
2023/08/08 05:12:36;;;;;;;5.55;1.80;;;15.30;99.90;;;;;;4939593;29;20038;-62
2023/08/08 05:15:02;;;;;;;3.43;1.90;;;15.30;99.90;;;;;;4956528;29;20432;-61
2023/08/08 05:17:31;;;;;;;2.70;1.63;;;15.20;99.90;;;;;;4956895;29;20376;-62
2023/08/08 05:19:57;;;;;;;2.70;1.50;;;15.00;99.90;;;;;;4956428;29;20059;-62
2023/08/08 05:22:22;;;;;;;3.10;1.53;;;15.00;99.90;;;;;;4956325;28;20476;-60
2023/08/08 05:24:48;;;;;;;3.33;1.43;;;14.90;99.90;;;;;;4939306;29;20351;-60
2023/08/08 05:27:13;;;;;;;3.77;1.87;;;14.80;99.90;;;;;;4952645;29;20102;-60
2023/08/08 05:29:40;;;;;;;4.93;2.03;;;14.80;99.90;;;;;;4956173;29;20034;-60
2023/08/08 05:32:07;;;;;;;4.32;1.70;;;14.80;99.90;;;;;;4938880;29;20361;-59
2023/08/08 05:34:33;;;;;;;2.80;2.45;;;14.90;99.90;;;;;;4956535;29;20030;-60
2023/08/08 05:36:59;;;;;;;5.15;1.60;;;14.90;99.90;;;;;;4956995;29;20094;-60
2023/08/08 05:39:24;;;;;;;4.33;1.83;;;14.90;99.90;;;;;;4956543;29;20054;-60
2023/08/08 05:41:50;;;;;;;6.30;2.13;;;15.00;99.90;;;;;;4956900;28;20019;-60
2023/08/08 05:44:15;;;;;;;4.80;1.57;;;15.10;99.90;;;;;;4957125;29;20039;-59
2023/08/08 05:46:41;;;;;;;4.73;2.53;;;15.10;99.90;;;;;;4956183;29;20277;-60
2023/08/08 05:49:07;;;;;;;3.13;1.75;;;15.20;99.90;;;;;;4939043;29;20020;-62
2023/08/08 05:51:32;;;;;;;6.30;1.80;;;15.20;99.90;;;;;;4956103;28;20035;-62
2023/08/08 05:53:58;;;;;;;3.35;1.77;;;15.20;99.90;;;;;;4955181;28;20035;-63
2023/08/08 05:56:23;;;;;;;2.50;1.33;;;15.30;99.90;;;;;;4955846;29;20432;-60
2023/08/08 05:58:49;;;;;;;4.83;1.57;;;15.30;99.90;;;;;;4955985;29;20432;-61
2023/08/08 06:01:15;;;;;;;4.13;1.77;;;15.30;99.90;;;;;;4955823;28;20680;-62
2023/08/08 06:03:40;;;;;;;2.47;1.75;;;15.30;99.90;;;;;;4955820;29;20027;-63
2023/08/08 06:06:06;;;;;;;3.13;1.70;;;15.40;99.90;;;;;;4955750;29;20028;-62
2023/08/08 06:08:32;;;;;;;3.53;1.67;;;15.50;99.90;;;;;;4955748;29;20269;-62
2023/08/08 06:10:58;;;;;;;3.55;1.50;;;15.70;99.90;;;;;;4955501;28;20728;-62
2023/08/08 06:13:23;;;;;;;4.45;1.88;;;15.80;99.90;;;;;;4955472;29;20035;-61
2023/08/08 06:15:49;;;;;;;2.60;1.53;;;15.80;99.90;;;;;;4938142;29;20031;-61
2023/08/08 06:18:15;;;;;;;3.53;1.77;;;15.90;99.90;;;;;;4938201;29;20035;-62
2023/08/08 06:20:41;;;;;;;2.67;1.50;;;16.00;99.90;;;;;;4955161;28;20267;-62
2023/08/08 06:23:07;;;;;;;5.20;1.75;;;16.00;99.90;;;;;;4938235;29;20488;-61
2023/08/08 06:25:32;;;;;;;3.22;1.52;;;16.00;99.90;;;;;;4938022;29;20396;-61
2023/08/08 06:27:58;;;;;;;2.85;1.50;;;16.10;99.90;;;;;;4955526;29;20552;-62
2023/08/08 06:30:23;;;;;;;2.93;1.50;;;16.20;99.90;;;;;;4955345;28;20033;-62
2023/08/08 06:32:49;;;;;;;6.83;1.70;;;16.20;99.90;;;;;;4938015;29;20353;-62
2023/08/08 06:35:16;;;;;;;3.67;1.50;;;16.20;99.90;;;;;;4955022;29;20391;-61
2023/08/08 06:37:42;;;;;;;3.58;1.70;;;16.40;99.90;;;;;;4955730;29;20038;-62
2023/08/08 06:40:09;;;;;;;5.15;1.80;;;16.40;99.90;;;;;;4955321;29;20035;-62
2023/08/08 06:42:34;;;;;;;;;;;16.40;99.90;;;;;;4955497;28;20027;-62
2023/08/08 06:45:00;;;;;;;3.92;1.75;;;16.50;99.90;;;;;;4938481;29;19906;-61
2023/08/08 06:47:25;;;;;;;2.70;1.50;;;16.50;99.90;;;;;;4954963;29;20019;-61
2023/08/08 06:49:51;;;;;;;3.83;1.73;;;16.60;99.90;;;;;;4937859;29;20271;-62
2023/08/08 06:52:16;;;;;;;4.13;2.43;;;16.60;99.90;;;;;;4937684;29;20439;-62
2023/08/08 06:54:42;;;;;;;4.33;1.80;;;16.70;99.90;;;;;;4937838;29;20686;-60
2023/08/08 06:57:07;;;;;;;2.60;1.37;;;16.70;99.90;;;;;;4938133;29;20024;-61
2023/08/08 06:59:33;;;;;;;3.47;1.50;;;16.80;99.90;;;;;;4955467;29;20023;-62
2023/08/08 07:01:58;;;;;;;6.03;1.67;;;16.80;99.90;;;;;;4955267;28;20043;-62
2023/08/08 07:04:24;;;;;;;2.70;1.30;;;16.90;99.90;;;;;;4937537;29;20275;-61
2023/08/08 07:06:50;;;;;;;6.55;1.55;;;17.10;99.90;;;;;;4958128;28;20051;-61
2023/08/08 07:09:16;;;;;;;4.53;1.40;;;17.20;99.90;;;;;;4941720;29;20027;-61
2023/08/08 07:11:42;;;;;;;3.25;1.55;;;17.20;99.90;;;;;;4958608;28;20034;-61
2023/08/08 07:14:07;;;;;;;2.70;1.63;;;17.20;99.90;;;;;;4959175;29;20043;-58
2023/08/08 07:16:33;;;;;;;2.90;1.52;;;17.30;99.90;;;;;;4958940;29;20330;-61
2023/08/08 07:19:00;;;;;;;3.73;1.30;;;17.40;99.90;;;;;;4959048;29;20392;-61
2023/08/08 07:21:26;;;;;;;3.65;1.45;;;17.40;99.90;;;;;;4958352;28;20034;-61
2023/08/08 07:23:51;;;;;;;3.70;1.48;;;17.40;99.90;;;;;;4958901;29;20031;-62
2023/08/08 07:26:17;;;;;;;4.97;1.73;;;17.50;99.90;;;;;;4941470;29;20054;-62
2023/08/08 07:28:43;;;;;;;4.15;1.30;;;17.60;99.90;;;;;;4958634;29;20102;-60
2023/08/08 07:31:08;;;;;;;2.42;1.45;;;17.50;99.90;;;;;;4941149;29;20027;-61
2023/08/08 07:33:34;;;;;;;4.53;1.52;;;17.50;99.90;;;;;;4958586;29;20031;-61
2023/08/08 07:35:59;;;;;;;4.18;1.65;;;17.70;99.90;;;;;;4958072;29;20038;-61
2023/08/08 07:38:25;;;;;;;3.28;1.27;;;17.80;99.90;;;;;;4958301;29;20034;-62
2023/08/08 07:40:50;;;;;;;4.23;1.30;;;18.00;99.90;;;;;;4958790;28;20045;-61
2023/08/08 07:43:16;;;;;;;2.53;1.67;;;18.00;99.90;;;;;;4958097;29;20296;-61
2023/08/08 07:45:42;;;;;;;3.72;1.52;;;17.90;99.90;;;;;;4941123;29;20275;-60
2023/08/08 07:48:08;;;;;;;;;;;18.00;99.90;;;;;;4958786;29;20019;-60
2023/08/08 07:50:33;;;;;;;3.45;1.48;;;18.10;99.90;;;;;;4958171;28;19969;-61
2023/08/08 07:52:59;;;;;;;3.95;1.42;;;18.10;99.90;;;;;;4940999;29;20027;-61
2023/08/08 07:55:24;;;;;;;5.67;1.50;;;18.10;99.90;;;;;;4958455;29;20110;-62
2023/08/08 07:57:50;;;;;;;4.63;1.40;;;18.20;99.90;;;;;;4958477;29;20341;-61
2023/08/08 08:00:18;;;;;;;10.90;1.40;;;18.40;99.90;;;;;;4958172;28;20027;-62
2023/08/08 08:02:44;;;;;;;4.28;1.83;;;18.60;99.90;;;;;;4957947;29;20090;-62
2023/08/08 08:05:11;;;;;;;5.13;1.50;;;18.80;99.90;;;;;;4940778;29;20491;-60
2023/08/08 08:07:37;;;;;;;3.78;2.00;;;18.90;99.90;;;;;;4957637;29;20027;-62
2023/08/08 08:10:05;;;;;;;4.28;2.15;;;18.90;99.90;;;;;;4940638;29;20031;-63
2023/08/08 08:12:31;;;;;;;3.25;1.30;;;19.00;99.90;;;;;;4958255;28;20023;-62
2023/08/08 08:14:58;;;;;;;5.13;1.88;;;19.20;99.90;;;;;;4958358;29;20035;-62
2023/08/08 08:17:24;;;;;;;5.75;1.30;;;19.40;99.90;;;;;;4958101;28;20032;-63
2023/08/08 08:19:50;;;;;;;2.60;1.27;;;19.60;99.90;;;;;;4941156;29;20046;-62
2023/08/08 08:22:16;;;;;;;3.47;1.50;;;20.00;99.90;;;;;;4959685;28;20031;-62
2023/08/08 08:24:42;;;;;;;5.03;1.35;;;20.20;99.90;;;;;;4958730;29;20046;-63
2023/08/08 08:27:07;;;;;;;3.08;1.38;;;20.40;99.90;;;;;;4957546;29;20028;-62
2023/08/08 08:29:33;;;;;;;2.38;1.08;;;20.80;99.90;;;;;;4957710;29;20055;-62
2023/08/08 08:31:58;;;;;;;4.07;1.50;;;21.70;99.90;;;;;;4957458;28;20039;-62
2023/08/08 08:34:24;;;;;;;3.38;1.20;;;23.40;98.80;;;;;;4940553;29;20023;-63
2023/08/08 08:36:49;;;;;;;;;;;25.20;96.20;;;;;;4957678;29;20078;-61
2023/08/08 08:39:15;;;;;;;1.75;1.08;;;26.90;93.30;;;;;;4957512;29;19907;-62
2023/08/08 08:41:40;;;;;;;;;;;28.40;91.40;;;;;;4958068;28;20114;-61
2023/08/08 08:44:06;;;;;;;3.58;1.63;;;29.70;88.60;;;;;;4957597;29;19911;-61
2023/08/08 08:46:35;;;;;;;2.22;1.38;;;30.10;86.40;;;;;;4957319;29;20026;-61
2023/08/08 08:49:02;;;;;;;2.15;1.10;;;31.10;83.80;;;;;;4940020;29;20110;-62
2023/08/08 08:51:28;;;;;;;4.35;1.42;;;32.30;80.00;;;;;;4939539;29;20033;-62
2023/08/08 08:53:54;;;;;;;4.72;1.27;;;32.70;77.40;;;;;;4957335;29;20023;-61
2023/08/08 08:56:20;;;;;;;3.70;1.33;;;32.80;76.40;;;;;;4957890;29;20028;-65
2023/08/08 08:58:46;;;;;;;4.03;1.20;;;32.60;75.80;;;;;;4958251;29;20031;-66
2023/08/08 09:01:12;;;;;;;2.80;1.08;;;32.50;75.20;;;;;;4957306;28;20377;-66
2023/08/08 09:03:38;;;;;;;4.07;1.42;;;31.80;75.50;;;;;;4957843;29;20090;-66
2023/08/08 09:06:04;;;;;;;3.15;1.52;;;32.20;74.80;;;;;;4958187;29;20584;-65
2023/08/08 09:08:30;;;;;;;2.67;1.42;;;32.50;74.40;;;;;;4957653;29;20110;-66
2023/08/08 09:10:56;;;;;;;5.85;1.20;;;32.50;74.10;;;;;;4957449;28;20054;-66
2023/08/08 09:13:25;;;;;;;3.53;1.23;;;33.10;72.50;;;;;;4939788;29;20027;-66
2023/08/08 09:15:51;;;;;;;3.53;1.23;;;32.70;72.10;;;;;;4957048;29;20124;-65
2023/08/08 09:18:16;;;;;;;2.88;1.13;;;32.70;71.60;;;;;;4957060;29;20058;-65
2023/08/08 09:20:48;;;;;;;4.18;1.23;;;32.60;71.50;;;;;;4956892;28;20050;-66
2023/08/08 09:23:14;;;;;;;2.08;1.10;;;32.50;71.20;;;;;;4940275;29;20497;-66
2023/08/08 09:25:40;;;;;;;2.53;1.40;;;32.50;70.90;;;;;;4939777;29;20051;-66
2023/08/08 09:28:05;;;;;;;1.35;1.10;;;32.80;71.00;;;;;;4956458;28;20038;-66
2023/08/08 09:30:31;;;;;;;2.83;0.98;;;33.10;69.70;;;;;;4956591;28;20110;-66
2023/08/08 09:33:03;;;;;;;4.18;1.25;;;32.90;69.60;;;;;;4956881;29;20034;-68
2023/08/08 09:35:30;;;;;;;3.95;1.20;;;32.30;69.70;;;;;;4956487;29;20110;-66
2023/08/08 09:37:56;;;;;;;3.17;1.40;;;32.00;70.00;;;;;;4956559;29;20070;-66
2023/08/08 09:40:23;;;;;;;3.53;1.33;;;31.40;71.00;;;;;;4956148;28;20039;-66
2023/08/08 09:42:52;;;;;;;2.85;1.40;;;31.10;70.80;;;;;;4939065;29;20133;-66
2023/08/08 09:45:17;;;;;;;4.38;1.35;;;31.00;71.90;;;;;;4956432;29;20047;-66
2023/08/08 09:47:43;;;;;;;3.67;1.23;;;30.40;72.50;;;;;;4956571;29;20110;-66
2023/08/08 09:50:09;;;;;;;2.53;1.20;;;31.60;70.60;;;;;;4956322;29;20031;-66
2023/08/08 09:52:35;;;;;;;2.45;1.05;;;32.20;69.50;;;;;;4955885;28;20073;-66
2023/08/08 09:55:02;;;;;;;4.45;1.10;;;31.00;70.20;;;;;;4956158;29;20035;-66
2023/08/08 09:57:29;;;;;;;4.82;1.45;;;31.60;71.20;;;;;;4956397;29;20024;-66
2023/08/08 09:59:55;;;;;;;3.63;1.10;;;31.80;70.50;;;;;;4956139;29;20031;-65
2023/08/08 10:02:21;;;;;;;5.65;1.30;;;30.30;71.00;;;;;;4955677;28;20039;-65
2023/08/08 10:04:47;;;;;;;4.30;1.60;;;29.40;71.80;;;;;;4956034;29;20022;-66
2023/08/08 10:07:13;;;;;;;3.95;1.40;;;29.30;72.70;;;;;;4957318;29;20045;-66
2023/08/08 10:09:40;;;;;;;2.20;1.20;;;29.40;73.60;;;;;;4956696;29;20053;-66
2023/08/08 10:12:06;;;;;;;2.35;1.30;;;29.50;72.90;;;;;;4956233;28;20019;-66
2023/08/08 10:14:34;;;;;;;2.42;1.25;;;28.30;74.70;;;;;;4955595;29;20028;-66
2023/08/08 10:17:03;;;;;;;2.17;1.10;;;28.10;75.70;;;;;;4956511;29;20026;-63
2023/08/08 10:19:29;;;;;;;3.85;1.20;;;27.60;76.40;;;;;;4955713;29;20532;-63
2023/08/08 10:21:58;;;;;;;5.93;1.60;;;27.80;75.30;;;;;;4955437;28;20019;-63
2023/08/08 10:24:23;;;;;;;4.35;1.95;;;29.10;72.40;;;;;;4955806;29;20027;-62
2023/08/08 10:27:00;;;;;;;4.45;1.42;;;29.80;71.20;;;;;;4938211;29;20069;-61
2023/08/08 10:29:27;;;;;;;2.75;1.27;;;30.90;69.60;;;;;;4938186;29;20436;-62
2023/08/08 10:32:01;;;;;;;4.80;1.30;;;31.80;68.30;;;;;;4955406;28;20114;-63
2023/08/08 10:34:43;;;;;;;3.70;1.30;;;31.30;66.90;;;;;;4955735;29;20099;-62
2023/08/08 10:37:13;;;;;;;2.85;1.38;;;30.60;67.80;;;;;;4955476;29;20024;-62
2023/08/08 10:39:54;;;;;;;2.17;1.20;;;29.90;68.40;;;;;;4954968;29;20086;-62
2023/08/08 10:42:22;;;;;;;2.63;1.00;;;29.50;68.10;;;;;;4955270;28;20035;-62
2023/08/08 10:44:59;;;;;;;4.05;1.08;;;29.10;68.90;;;;;;4937927;29;20028;-63
2023/08/08 10:47:35;;;;;;;3.88;1.25;;;28.70;69.50;;;;;;4938072;29;20027;-63
2023/08/08 10:50:06;;;;;;;7.78;1.58;;;29.00;69.60;;;;;;4938010;29;20496;-62
2023/08/08 10:52:35;;;;;;;2.17;1.10;;;29.20;69.70;;;;;;4955452;28;20070;-63
2023/08/08 10:55:02;;;;;;;2.30;1.30;;;29.90;68.00;;;;;;4955308;29;20119;-64
2023/08/08 10:57:28;;;;;;;2.63;1.10;;;30.70;67.00;;;;;;4955314;29;20030;-64
2023/08/08 10:59:54;;;;;;;2.53;0.88;;;31.20;66.30;;;;;;4955251;29;20400;-63
2023/08/08 11:02:21;;;;;;;1.77;0.88;;;31.90;65.20;;;;;;4955009;28;20043;-63
2023/08/08 11:04:49;;;;;;;2.22;1.20;;;32.60;63.40;;;;;;4954940;29;20030;-64
2023/08/08 11:07:15;;;;;;;1.95;0.70;;;32.60;63.80;;;;;;4954710;29;20362;-64
2023/08/08 11:09:42;;;;;;;2.60;1.10;;;32.40;62.50;;;;;;4955929;29;20078;-63
2023/08/08 11:12:14;;;;;;;1.92;1.10;;;32.60;61.10;;;;;;4938728;29;20068;-63
2023/08/08 11:14:40;;;;;;;2.15;1.30;;;32.40;61.20;;;;;;4956231;29;20020;-63
2023/08/08 11:17:05;;;;;;;5.40;2.60;;;31.20;62.70;;;;;;4957845;29;20086;-63
2023/08/08 11:19:37;;;;;;;1.80;0.95;;;29.50;65.00;;;;;;4956298;29;20039;-63
2023/08/08 11:22:10;;;;;;;2.00;1.02;;;28.00;66.80;;;;;;4955411;28;20400;-62
2023/08/08 11:24:36;;;;;;;2.28;1.10;;;26.70;68.80;;;;;;4955239;29;20465;-62
2023/08/08 11:27:01;;;;;;;;;;;26.00;70.20;;;;;;4938181;29;20031;-62
2023/08/08 11:29:30;;;;;;;2.15;1.00;;;25.60;71.90;;;;;;4955391;29;19907;-62
2023/08/08 11:31:56;;;;;;;3.17;0.90;;;25.30;72.00;;;;;;4955029;28;20031;-62
2023/08/08 11:34:22;;;;;;;3.58;1.10;;;25.20;72.60;;;;;;4955591;29;20027;-61
2023/08/08 11:36:48;;;;;;;;;;;25.00;73.20;;;;;;4954987;29;20154;-62
2023/08/08 11:39:14;;;;;;;3.22;1.23;;;24.60;74.40;;;;;;4938502;29;19957;-63
2023/08/08 11:41:41;;;;;;;1.77;0.93;;;24.60;74.40;;;;;;4955043;28;20451;-63
2023/08/08 11:44:08;;;;;;;1.40;0.85;;;24.50;74.90;;;;;;4956361;29;20392;-63
2023/08/08 11:46:33;;;;;;;4.63;1.05;;;24.50;74.50;;;;;;4956421;29;20016;-63
2023/08/08 11:49:04;;;;;;;2.72;1.05;;;24.40;74.40;;;;;;4955432;29;20031;-62
2023/08/08 11:51:30;;;;;;;2.00;1.00;;;24.50;72.90;;;;;;4954424;28;20023;-63
2023/08/08 11:53:55;;;;;;;2.35;1.00;;;24.50;71.90;;;;;;4941488;29;20504;-62
2023/08/08 11:56:21;;;;;;;;;;;24.50;72.00;;;;;;4941440;29;20115;-62
2023/08/08 11:58:53;;;;;;;2.35;0.85;;;24.20;73.30;;;;;;4958387;29;20413;-62
2023/08/08 12:01:24;;;;;;;2.25;1.40;;;24.10;74.20;;;;;;4940668;29;20031;-63
2023/08/08 12:03:50;;;;;;;1.58;0.80;;;24.20;75.30;;;;;;4957735;29;20112;-62
2023/08/08 12:06:16;;;;;;;2.13;1.05;;;24.20;76.30;;;;;;4957694;29;20102;-64
2023/08/08 12:08:46;;;;;;;1.52;0.88;;;24.30;76.20;;;;;;4957969;29;20053;-62
2023/08/08 12:11:13;;;;;;;3.28;1.38;;;24.20;76.10;;;;;;4940908;29;20511;-62
2023/08/08 12:13:43;;;;;;;2.53;1.00;;;24.20;76.40;;;;;;4957953;29;20495;-62
2023/08/08 12:16:09;;;;;;;4.30;1.08;;;24.10;76.60;;;;;;4958168;29;20030;-63
2023/08/08 12:18:37;;;;;;;4.05;1.13;;;24.00;76.70;;;;;;4957996;29;20031;-62
2023/08/08 12:21:04;;;;;;;1.75;0.82;;;23.80;76.30;;;;;;4957751;28;20028;-63
2023/08/08 12:23:30;;;;;;;1.60;0.80;;;23.60;75.60;;;;;;4957574;29;20031;-62
2023/08/08 12:25:56;;;;;;;1.30;1.00;;;23.60;75.00;;;;;;4958021;29;20046;-63
2023/08/08 12:28:22;;;;;;;2.55;0.90;;;23.60;75.90;;;;;;4957663;29;20067;-63
2023/08/08 12:30:47;;;;;;;1.98;1.02;;;23.70;75.60;;;;;;4940450;29;20528;-62
2023/08/08 12:33:13;;;;;;;2.25;0.98;;;23.80;76.10;;;;;;4957489;29;20061;-62
2023/08/08 12:35:39;;;;;;;4.13;1.48;;;23.80;77.00;;;;;;4957344;29;20031;-62
2023/08/08 12:38:04;;;;;;;2.60;1.10;;;23.90;76.90;;;;;;4940132;29;20535;-61
2023/08/08 12:40:30;;;;;;;2.03;1.00;;;24.00;76.60;;;;;;4957294;28;20037;-62
2023/08/08 12:42:55;;;;;;;6.82;1.23;;;24.10;75.80;;;;;;4957244;29;20086;-62
2023/08/08 12:45:21;;;;;;;;;;;24.20;75.20;;;;;;4957606;29;20047;-61
2023/08/08 12:47:46;;;;;;;2.70;1.13;;;24.20;75.40;;;;;;4957277;29;19907;-63
2023/08/08 12:50:12;;;;;;;;;;;24.20;75.20;;;;;;4958018;29;20031;-63
2023/08/08 12:52:38;;;;;;;1.90;0.65;;;24.20;74.30;;;;;;4956894;29;19933;-62
2023/08/08 12:55:04;;;;;;;1.88;1.00;;;24.30;74.80;;;;;;4956971;29;20488;-62
2023/08/08 12:57:30;;;;;;;5.05;0.95;;;24.10;74.00;;;;;;4957355;29;20036;-63
2023/08/08 12:59:56;;;;;;;8.30;1.33;;;24.10;74.60;;;;;;4957384;29;20046;-63
2023/08/08 13:02:21;;;;;;;3.17;1.25;;;24.10;76.00;;;;;;4939615;29;20039;-63
2023/08/08 13:04:47;;;;;;;;;;;24.20;76.70;;;;;;4957913;28;20046;-64
2023/08/08 13:07:12;;;;;;;4.78;1.10;;;24.20;76.20;;;;;;4939920;29;19929;-63
2023/08/08 13:09:38;;;;;;;1.38;0.93;;;24.20;76.10;;;;;;4940462;29;20031;-62
2023/08/08 13:12:05;;;;;;;;;;;24.20;74.20;;;;;;4957629;28;20023;-62
2023/08/08 13:14:30;;;;;;;3.53;1.30;;;24.30;74.70;;;;;;4957520;29;19906;-63
2023/08/08 13:16:56;;;;;;;3.25;1.15;;;24.30;74.60;;;;;;4957387;29;20107;-61
2023/08/08 13:19:24;;;;;;;;;;;24.30;74.90;;;;;;4957481;29;20035;-63
2023/08/08 13:21:51;;;;;;;2.17;0.90;;;24.40;74.60;;;;;;4956884;28;19907;-62
2023/08/08 13:24:16;;;;;;;1.85;1.00;;;24.50;74.30;;;;;;4957219;29;20034;-63
2023/08/08 13:26:42;;;;;;;4.05;1.00;;;24.40;74.70;;;;;;4956690;29;20027;-63
2023/08/08 13:29:08;;;;;;;;;;;24.50;75.10;;;;;;4957416;29;20511;-62
2023/08/08 13:31:33;;;;;;;2.55;1.13;;;24.60;75.70;;;;;;4956651;28;19906;-63
2023/08/08 13:33:59;;;;;;;;;;;24.60;74.90;;;;;;4956971;29;20144;-60
2023/08/08 13:36:24;;;;;;;3.17;0.93;;;24.60;74.70;;;;;;4956215;29;19988;-63
2023/08/08 13:38:50;;;;;;;;;;;24.40;75.80;;;;;;4956740;29;20034;-63
2023/08/08 13:41:15;;;;;;;3.97;1.40;;;24.50;74.60;;;;;;4939048;29;19953;-62
2023/08/08 13:43:41;;;;;;;;;;;24.60;74.20;;;;;;4956774;29;20058;-62
2023/08/08 13:46:09;;;;;;;0.80;0.73;;;24.40;74.50;;;;;;4956234;29;20386;-62
2023/08/08 13:48:35;;;;;;;3.03;1.10;;;24.40;75.20;;;;;;4938854;29;20030;-61
2023/08/08 13:51:01;;;;;;;;;;;24.40;75.20;;;;;;4956761;28;20084;-62
2023/08/08 13:53:26;;;;;;;4.95;1.45;;;24.50;74.80;;;;;;4939937;29;19907;-63
2023/08/08 13:55:52;;;;;;;;;;;24.60;73.90;;;;;;4962963;29;20338;-61
2023/08/08 13:58:17;;;;;;;2.13;0.98;;;24.60;73.00;;;;;;4947500;29;19907;-61
2023/08/08 14:00:43;;;;;;;;;;;24.60;73.60;;;;;;4943950;29;20042;-63
2023/08/08 14:03:08;;;;;;;1.95;1.05;;;24.70;73.10;;;;;;4957847;29;19957;-62
2023/08/08 14:05:34;;;;;;;;;;;24.70;73.30;;;;;;4957913;29;20031;-62
2023/08/08 14:07:59;;;;;;;3.08;1.27;;;24.60;73.20;;;;;;4958389;29;19957;-63
2023/08/08 14:10:25;;;;;;;2.63;0.98;;;24.60;72.50;;;;;;4959201;28;20028;-62
2023/08/08 14:12:50;;;;;;;;;;;24.40;71.50;;;;;;4958866;29;20031;-63
2023/08/08 14:15:16;;;;;;;4.53;0.90;;;24.50;71.30;;;;;;4956431;28;20377;-62
2023/08/08 14:17:41;;;;;;;;;;;24.50;71.10;;;;;;4957119;29;20043;-62
2023/08/08 14:20:07;;;;;;;1.55;1.00;;;24.50;71.20;;;;;;4956734;29;19906;-63
2023/08/08 14:22:34;;;;;;;2.00;1.00;;;24.50;71.80;;;;;;4957375;28;20035;-63
2023/08/08 14:25:00;;;;;;;3.58;1.30;;;24.50;72.50;;;;;;4957850;29;20027;-63
2023/08/08 14:27:25;;;;;;;3.85;1.00;;;24.60;72.00;;;;;;4957891;29;20034;-63
2023/08/08 14:29:51;;;;;;;;;;;24.70;71.20;;;;;;4957801;29;20559;-62
2023/08/08 14:32:17;;;;;;;2.45;0.90;;;24.70;71.00;;;;;;4941889;29;19910;-63
2023/08/08 14:34:42;;;;;;;;;;;24.70;71.70;;;;;;4941725;29;20035;-62
2023/08/08 14:37:08;;;;;;;2.03;0.77;;;24.70;71.60;;;;;;4958656;29;19906;-61
2023/08/08 14:39:33;;;;;;;;;;;24.70;71.20;;;;;;4959025;29;20488;-62
2023/08/08 14:41:58;;;;;;;1.63;0.75;;;24.50;71.00;;;;;;4959078;28;19907;-63
2023/08/08 14:44:24;;;;;;;;;;;24.60;71.30;;;;;;4958189;29;20059;-62
2023/08/08 14:46:50;;;;;;;1.63;1.10;;;24.50;71.20;;;;;;4958027;29;19907;-62
2023/08/08 14:49:15;;;;;;;;;;;24.50;71.90;;;;;;4957392;29;20441;-62
2023/08/08 14:51:41;;;;;;;1.42;0.77;;;24.40;72.30;;;;;;4956449;28;20066;-62
2023/08/08 14:54:06;;;;;;;2.03;1.00;;;24.40;72.40;;;;;;4937774;29;20030;-62
2023/08/08 14:56:32;;;;;;;;;;;24.40;72.80;;;;;;4938329;29;20035;-63
2023/08/08 14:58:57;;;;;;;2.58;0.80;;;24.40;72.80;;;;;;4955084;29;20320;-66
2023/08/08 15:01:23;;;;;;;;;;;24.50;73.00;;;;;;4955242;28;20062;-63
2023/08/08 15:03:49;;;;;;;1.95;1.00;;;24.60;72.40;;;;;;4955158;29;20283;-63
2023/08/08 15:06:14;;;;;;;;;;;24.50;73.10;;;;;;4955456;29;20385;-63
2023/08/08 15:08:42;;;;;;;3.40;1.00;;;24.50;72.80;;;;;;4954669;29;19907;-64
2023/08/08 15:11:08;;;;;;;3.78;1.48;;;24.60;72.60;;;;;;4955025;28;20066;-64
2023/08/08 15:13:33;;;;;;;;;;;24.50;72.60;;;;;;4954923;29;20058;-63
2023/08/08 15:15:59;;;;;;;2.58;1.00;;;24.50;72.50;;;;;;4954593;29;19906;-63
2023/08/08 15:18:24;;;;;;;;;;;24.50;72.80;;;;;;4934910;29;20031;-64
2023/08/08 15:20:50;;;;;;;1.48;0.90;;;24.40;75.20;;;;;;4935511;29;19910;-63
2023/08/08 15:23:15;;;;;;;;;;;24.30;74.10;;;;;;4937349;29;20083;-62
2023/08/08 15:25:41;;;;;;;2.35;1.10;;;24.30;75.80;;;;;;4946388;29;19922;-63
2023/08/08 15:28:07;;;;;;;;;;;24.30;76.20;;;;;;4949132;29;20424;-60
2023/08/08 15:30:33;;;;;;;2.22;1.02;;;24.10;76.60;;;;;;4946319;29;19915;-62
2023/08/08 15:32:58;;;;;;;;;;;24.10;75.20;;;;;;4923310;29;20032;-63
2023/08/08 15:35:24;;;;;;;2.13;1.13;;;24.20;75.00;;;;;;4951822;29;19993;-62
2023/08/08 15:37:49;;;;;;;;;;;24.20;75.80;;;;;;4941283;29;20028;-61
2023/08/08 15:40:15;;;;;;;2.50;0.95;;;24.30;76.30;;;;;;4941042;29;20045;-64
2023/08/08 15:42:42;;;;;;;;;;;24.20;74.70;;;;;;4958649;29;20035;-62
2023/08/08 15:45:09;;;;;;;2.80;0.82;;;24.10;74.10;;;;;;4956500;29;20017;-63
2023/08/08 15:47:34;;;;;;;2.30;1.13;;;24.20;76.80;;;;;;4958387;29;20032;-62
2023/08/08 15:50:00;;;;;;;2.10;0.90;;;24.20;76.80;;;;;;4958228;29;20042;-63
2023/08/08 15:52:26;;;;;;;;;;;24.30;74.90;;;;;;4951534;28;20036;-63
2023/08/08 15:54:52;;;;;;;1.75;0.93;;;24.20;74.10;;;;;;4940256;29;19917;-64
2023/08/08 15:57:17;;;;;;;;;;;24.30;76.10;;;;;;4942256;29;20515;-62
2023/08/08 15:59:43;;;;;;;4.50;1.13;;;24.20;75.60;;;;;;4958079;29;19906;-62
2023/08/08 16:02:09;;;;;;;5.65;1.08;;;24.20;75.10;;;;;;4957849;29;20039;-62
2023/08/08 16:04:35;;;;;;;4.03;1.60;;;24.10;75.10;;;;;;4957291;29;20031;-62
2023/08/08 16:07:01;;;;;;;4.63;1.10;;;23.90;75.00;;;;;;4953515;29;20027;-64
2023/08/08 16:09:27;;;;;;;2.80;1.13;;;23.80;75.70;;;;;;4957730;29;20027;-65
2023/08/08 16:11:53;;;;;;;3.10;1.50;;;23.70;76.00;;;;;;4957434;28;20023;-63
2023/08/08 16:14:19;;;;;;;3.13;0.82;;;23.60;76.70;;;;;;4957789;29;20101;-62
2023/08/08 16:16:45;;;;;;;3.13;1.40;;;23.50;76.70;;;;;;4993978;23;20398;-65
2023/08/08 16:19:11;;;;;;;1.95;1.00;;;23.50;76.90;;;;;;4996816;28;20033;-67
2023/08/08 16:21:37;;;;;;;;;;;23.40;77.40;;;;;;4996869;28;20018;-66
2023/08/08 16:24:03;;;;;;;2.92;1.20;;;23.50;77.40;;;;;;4976636;28;20247;-60
2023/08/08 16:26:28;;;;;;;;;;;23.50;77.80;;;;;;4969453;28;20420;-60
2023/08/08 16:28:54;;;;;;;3.38;1.10;;;23.50;78.00;;;;;;4966116;28;19918;-67
2023/08/08 16:31:19;;;;;;;;;;;23.60;77.30;;;;;;4957848;29;20027;-69
2023/08/08 16:33:45;;;;;;;2.72;1.00;;;23.70;77.30;;;;;;4955899;29;19913;-62
2023/08/08 16:36:10;;;;;;;4.30;1.20;;;23.70;77.00;;;;;;4961229;28;20034;-61
2023/08/08 16:38:36;;;;;;;2.47;1.10;;;23.80;77.20;;;;;;4974664;28;20030;-62
2023/08/08 16:41:02;;;;;;;2.85;1.20;;;23.80;77.80;;;;;;4976950;28;20030;-62
2023/08/08 16:43:31;;;;;;;3.38;1.20;;;23.90;77.10;;;;;;4976141;28;20106;-62
2023/08/08 16:45:57;;;;;;;3.25;1.20;;;23.90;77.00;;;;;;4958620;28;20057;-59
2023/08/08 16:48:22;;;;;;;2.88;1.40;;;23.80;77.30;;;;;;4974031;28;20023;-61
2023/08/08 16:50:49;;;;;;;5.55;1.58;;;23.70;77.50;;;;;;4973664;28;20400;-61
2023/08/08 16:53:16;;;;;;;3.03;1.02;;;23.50;78.40;;;;;;4976604;28;20038;-61